KCEC/CEC METAR and TAF weather

Enter ICAO airport designator
Station Type Date Time Source
KCEC METAR 2021/09/20 05:56 UTC NOAA

KCEC 200556Z AUTO 34006KT 2 1/2SM BR SCT007 12/11 A3023 RMK AO2 SLP238 T01220106 10161 20122 53005 $


Station Type Date Time Source
KCEC Decoded METAR 2021/09/20 05:56 UTC NOAA

CRESCENT CITY MC NAMARA, CA, United States (KCEC) 41-47N 124-14W
Sep 20, 2021 - 01:56 AM EDT / 2021.09.20 0556 UTC
Wind: from the NNW (340 degrees) at 7 MPH (6 KT):0
Visibility: 2 1/2 mile(s):0
Sky conditions: partly cloudy
Weather: mist
Temperature: 54.0 F (12.2 C)
Dew Point: 51.1 F (10.6 C)
Relative Humidity: 89%
Pressure (altimeter): 30.23 in. Hg (1023 hPa)
Pressure tendency: 0.01 inches (0.5 hPa) higher than three hours ago
ob: KCEC 200556Z AUTO 34006KT 2 1/2SM BR SCT007 12/11 A3023 RMK AO2 SLP238 T01220106 10161 20122 53005
cycle: 6

Station Type Date Time Source
KCEC TAF 2021/09/20 06:33 UTC NOAA

TAF KCEC 200531Z 2006/2106 36004KT 4SM BR SCT007
TEMPO 2006/2007 BKN006
FM201700 34012G18KT 6SM BR SKC
FM202000 34020G26KT 4SM HZ SKC
FM210300 10010KT 4SM BR SKC

Example: see airport list